Sunnybrook, California
Current Conditions -  °F | °C
As of 8:49 AM on Friday 24 Oct 2014 (Local Time) from KMHR Reporting Station
Few Clouds Few Clouds  
Wind Chill: 50°   Ceiling: Unl
Heat Index: 50°   Visibility: 10mi
Dew Point: 50°   Wind: 0mph
Humidity: 100%   Direction: NA
Pressure: 29.99"   Gusts: NA
Location:  38.3354°N, 120.942°W
Report Text: KMHR 241549Z 00000KT 10SM FEW002 10/10 A2999 RMK VIS SW 1 1/2 SM
Loading
Personal Weather Stations






























Interactive Weather Map
Tropical Storm Tracking
New forecast layout! Learn more

10-Day Weather Forecast

Advertisements
Track Severe Weather on mobile